Time;durP1;ratioP1;P1;durP2;ratioP2;P2;SDS_P1;SDS_P2;PMS_P1;PMS_P2;Temp;Humidity;BMP_temperature;BMP_pressure;BME280_temperature;BME280_humidity;BME280_pressure;Samples;Min_cycle;Max_cycle;Signal;HPM_P1;HPM_P2
2022/10/17 00:00:26;;;;;;;116.03;109.95;;;14.30;99.90;;;;;;5028701;28;20683;-61
2022/10/17 00:02:54;;;;;;;110.30;104.47;;;14.30;99.90;;;;;;5028737;28;20395;-61
2022/10/17 00:05:20;;;;;;;114.75;108.60;;;14.30;99.90;;;;;;5028197;28;20386;-62
2022/10/17 00:07:45;;;;;;;113.47;107.57;;;14.30;99.90;;;;;;5029367;28;20502;-61
2022/10/17 00:10:11;;;;;;;113.75;107.95;;;14.30;99.90;;;;;;5028233;28;20395;-61
2022/10/17 00:12:37;;;;;;;124.40;117.90;;;14.30;99.90;;;;;;5025071;28;20429;-61
2022/10/17 00:15:06;;;;;;;128.50;121.72;;;14.30;99.90;;;;;;5026035;28;20515;-61
2022/10/17 00:17:31;;;;;;;132.37;125.27;;;14.30;99.90;;;;;;5024593;28;20505;-61
2022/10/17 00:19:59;;;;;;;121.90;115.10;;;14.30;99.90;;;;;;5024269;28;20462;-61
2022/10/17 00:22:25;;;;;;;121.88;115.32;;;14.30;99.90;;;;;;5026231;28;20415;-62
2022/10/17 00:24:50;;;;;;;124.33;117.63;;;14.30;99.90;;;;;;5027137;28;20694;-61
2022/10/17 00:27:16;;;;;;;121.07;114.67;;;14.30;99.90;;;;;;5028421;28;20460;-62
2022/10/17 00:29:41;;;;;;;125.80;119.10;;;14.30;99.90;;;;;;5029182;28;20437;-62
2022/10/17 00:32:07;;;;;;;131.10;124.00;;;14.20;99.90;;;;;;5029121;28;20743;-62
2022/10/17 00:34:32;;;;;;;139.77;132.20;;;14.20;99.90;;;;;;5029774;28;20431;-62
2022/10/17 00:36:58;;;;;;;140.87;133.07;;;14.20;99.90;;;;;;5028134;28;20450;-61
2022/10/17 00:39:24;;;;;;;141.07;133.67;;;14.30;99.90;;;;;;5029024;28;20846;-62
2022/10/17 00:41:49;;;;;;;151.40;143.15;;;14.30;99.90;;;;;;5029846;28;20391;-62
2022/10/17 00:44:30;;;;;;;164.70;155.80;;;14.20;99.90;;;;;;5027280;28;20485;-62
2022/10/17 00:46:58;;;;;;;174.55;164.95;;;14.20;99.90;;;;;;5029431;28;20402;-62
2022/10/17 00:49:27;;;;;;;176.43;167.07;;;14.20;99.90;;;;;;5027738;28;20391;-62
2022/10/17 00:52:04;;;;;;;172.10;162.82;;;14.20;99.90;;;;;;5027300;28;20526;-62
2022/10/17 00:54:39;;;;;;;155.93;147.48;;;14.20;99.90;;;;;;5028505;28;20402;-62
2022/10/17 00:57:05;;;;;;;144.68;136.80;;;14.20;99.90;;;;;;5029372;28;20399;-62
2022/10/17 00:59:38;;;;;;;129.70;122.53;;;14.20;99.90;;;;;;5032845;28;20496;-62
2022/10/17 01:02:08;;;;;;;118.28;111.78;;;14.30;99.90;;;;;;5031329;28;20394;-62
2022/10/17 01:04:35;;;;;;;120.30;113.72;;;14.20;99.90;;;;;;5032198;28;20437;-61
2022/10/17 01:07:01;;;;;;;120.53;113.93;;;14.20;99.90;;;;;;5032477;28;20383;-62
2022/10/17 01:09:27;;;;;;;111.45;105.20;;;14.20;99.90;;;;;;5029370;28;20476;-62
2022/10/17 01:12:06;;;;;;;110.10;103.60;;;14.20;99.90;;;;;;5032926;28;20379;-62
2022/10/17 01:14:40;;;;;;;106.90;101.18;;;14.20;99.90;;;;;;5032710;28;20542;-62
2022/10/17 01:17:54;;;;;;;110.57;104.82;;;14.20;99.90;;;;;;5032014;28;20814;-62
2022/10/17 01:20:53;;;;;;;101.97;96.47;;;14.20;99.90;;;;;;4973502;28;20420;-62
2022/10/17 01:23:36;;;;;;;102.43;96.60;;;14.20;99.90;;;;;;5034142;28;20395;-62
2022/10/17 01:26:25;;;;;;;109.97;104.03;;;14.20;99.90;;;;;;5032833;28;20393;-61
2022/10/17 01:29:08;;;;;;;120.38;113.75;;;14.20;99.90;;;;;;5030409;28;20674;-61
2022/10/17 01:31:37;;;;;;;112.77;106.67;;;14.20;99.90;;;;;;5033992;28;20447;-62
2022/10/17 01:34:13;;;;;;;119.90;113.28;;;14.20;99.90;;;;;;5034026;28;20426;-61
2022/10/17 01:37:15;;;;;;;125.07;118.18;;;14.20;99.90;;;;;;5032537;28;20424;-61
2022/10/17 01:39:48;;;;;;;143.95;136.05;;;14.20;99.90;;;;;;5033271;28;20574;-61
2022/10/17 01:42:19;;;;;;;145.50;137.43;;;14.20;99.90;;;;;;5035183;28;20379;-61
2022/10/17 01:44:58;;;;;;;138.18;130.63;;;14.20;99.90;;;;;;5032946;28;20383;-61
2022/10/17 01:47:28;;;;;;;142.95;135.07;;;14.20;99.90;;;;;;5033235;28;20380;-61
2022/10/17 01:50:03;;;;;;;136.35;128.80;;;14.20;99.90;;;;;;5031494;28;20731;-62
2022/10/17 01:52:43;;;;;;;133.70;126.45;;;14.20;99.90;;;;;;5032345;28;20383;-61
2022/10/17 01:55:33;;;;;;;134.90;127.40;;;14.20;99.90;;;;;;5033012;28;20552;-60
2022/10/17 01:58:26;;;;;;;139.52;132.00;;;14.20;99.90;;;;;;5031714;28;20390;-61
2022/10/17 02:00:53;;;;;;;137.95;130.43;;;14.20;99.90;;;;;;5032739;28;20391;-62
2022/10/17 02:03:20;;;;;;;123.25;116.78;;;14.20;99.90;;;;;;5031712;28;20493;-60
2022/10/17 02:05:46;;;;;;;138.40;130.80;;;14.20;99.90;;;;;;5031649;28;20747;-61
2022/10/17 02:08:12;;;;;;;130.98;123.93;;;14.20;99.90;;;;;;5032127;28;20403;-61
2022/10/17 02:10:47;;;;;;;135.95;128.55;;;14.20;99.90;;;;;;5032315;28;20423;-61
2022/10/17 02:13:28;;;;;;;142.60;135.05;;;14.20;99.90;;;;;;5031881;28;20462;-61
2022/10/17 02:16:26;;;;;;;135.73;128.13;;;14.20;99.90;;;;;;5032430;28;20691;-62
2022/10/17 02:18:51;;;;;;;134.48;127.22;;;14.20;99.90;;;;;;5033212;28;20826;-61
2022/10/17 02:21:50;;;;;;;135.63;128.53;;;14.20;99.90;;;;;;5030921;28;20415;-62
2022/10/17 02:24:37;;;;;;;134.15;127.05;;;14.30;99.90;;;;;;5032297;28;20687;-62
2022/10/17 02:27:12;;;;;;;132.75;125.60;;;14.30;99.90;;;;;;5032086;28;20771;-62
2022/10/17 02:29:48;;;;;;;133.85;126.70;;;14.30;99.90;;;;;;5032781;28;20405;-62
2022/10/17 02:32:23;;;;;;;131.23;124.35;;;14.30;99.90;;;;;;5032826;28;20683;-62
2022/10/17 02:34:53;;;;;;;131.00;123.97;;;14.30;99.90;;;;;;5050930;28;20410;-62
2022/10/17 02:37:23;;;;;;;131.02;124.13;;;14.30;99.90;;;;;;5035323;28;20401;-62
2022/10/17 02:39:50;;;;;;;136.15;129.07;;;14.30;99.90;;;;;;5036556;28;20396;-63
2022/10/17 02:42:18;;;;;;;130.02;122.95;;;14.30;99.90;;;;;;5035082;28;20668;-62
2022/10/17 02:44:45;;;;;;;131.55;124.57;;;14.30;99.90;;;;;;5035980;28;20781;-62
2022/10/17 02:47:24;;;;;;;129.70;122.95;;;14.30;99.90;;;;;;5037114;28;20389;-62
2022/10/17 02:49:52;;;;;;;135.80;128.50;;;14.30;99.90;;;;;;5035772;28;20392;-60
2022/10/17 02:52:43;;;;;;;137.97;130.67;;;14.30;99.90;;;;;;5037643;28;20415;-63
2022/10/17 02:55:14;;;;;;;137.40;130.27;;;14.30;99.90;;;;;;5054933;28;20420;-63
2022/10/17 02:58:08;;;;;;;138.50;131.23;;;14.30;99.90;;;;;;5037329;28;20805;-63
2022/10/17 03:00:34;;;;;;;138.40;131.00;;;14.30;99.90;;;;;;5033580;28;20382;-64
2022/10/17 03:02:59;;;;;;;136.50;129.15;;;14.30;99.90;;;;;;5034544;28;20416;-63
2022/10/17 03:05:28;;;;;;;137.87;130.50;;;14.40;99.90;;;;;;5034589;28;20413;-63
2022/10/17 03:07:54;;;;;;;139.35;131.88;;;14.40;99.90;;;;;;5037621;28;20412;-63
2022/10/17 03:10:20;;;;;;;139.77;132.52;;;14.40;99.90;;;;;;5052652;28;20719;-63
2022/10/17 03:12:46;;;;;;;143.83;136.27;;;14.40;99.90;;;;;;5034303;28;20470;-63
2022/10/17 03:15:12;;;;;;;137.37;130.23;;;14.40;99.90;;;;;;5051445;28;20415;-63
2022/10/17 03:17:38;;;;;;;139.18;132.02;;;14.40;99.90;;;;;;5033395;28;20863;-63
2022/10/17 03:20:04;;;;;;;139.70;132.50;;;14.40;99.90;;;;;;5033857;28;20669;-63
2022/10/17 03:22:30;;;;;;;143.98;136.43;;;14.40;99.90;;;;;;5033609;28;20782;-63
2022/10/17 03:24:56;;;;;;;138.90;131.43;;;14.40;99.90;;;;;;5034248;28;20385;-63
2022/10/17 03:27:21;;;;;;;135.83;128.73;;;14.40;99.90;;;;;;5034711;28;20795;-63
2022/10/17 03:29:47;;;;;;;141.13;133.70;;;14.40;99.90;;;;;;5051901;28;20411;-63
2022/10/17 03:32:12;;;;;;;133.57;126.60;;;14.40;99.90;;;;;;5053995;28;20385;-64
2022/10/17 03:34:38;;;;;;;139.90;132.63;;;14.40;99.90;;;;;;5035255;28;20413;-60
2022/10/17 03:37:04;;;;;;;136.75;129.48;;;14.40;99.90;;;;;;5034433;28;20401;-61
2022/10/17 03:39:29;;;;;;;140.73;133.50;;;14.40;99.90;;;;;;5036133;28;20392;-61
2022/10/17 03:41:55;;;;;;;141.27;133.77;;;14.40;99.90;;;;;;5036090;28;20483;-61
2022/10/17 03:44:20;;;;;;;143.45;135.95;;;14.40;99.90;;;;;;5053242;28;20393;-62
2022/10/17 03:46:46;;;;;;;147.17;139.33;;;14.40;99.90;;;;;;5035121;28;20778;-62
2022/10/17 03:49:11;;;;;;;151.18;143.27;;;14.40;99.90;;;;;;5034604;28;20405;-61
2022/10/17 03:51:37;;;;;;;142.83;135.30;;;14.40;99.90;;;;;;5033997;28;20765;-60
2022/10/17 03:54:03;;;;;;;149.70;141.87;;;14.40;99.90;;;;;;5030408;28;20480;-61
2022/10/17 03:56:29;;;;;;;141.23;133.77;;;14.40;99.90;;;;;;5030590;28;20516;-62
2022/10/17 03:58:55;;;;;;;149.52;141.73;;;14.40;99.90;;;;;;5031618;28;20768;-62
2022/10/17 04:01:21;;;;;;;140.23;133.00;;;14.40;99.90;;;;;;5030223;28;20432;-62
2022/10/17 04:03:52;;;;;;;144.75;137.27;;;14.30;99.90;;;;;;5031765;28;20377;-62
2022/10/17 04:06:19;;;;;;;145.30;137.80;;;14.30;99.90;;;;;;5031445;28;20396;-62
2022/10/17 04:08:45;;;;;;;146.90;139.25;;;14.30;99.90;;;;;;5049001;28;20385;-62
2022/10/17 04:11:15;;;;;;;148.48;140.68;;;14.30;99.90;;;;;;5030687;28;20432;-63
2022/10/17 04:13:41;;;;;;;147.77;140.00;;;14.30;99.90;;;;;;5049313;28;20421;-61
2022/10/17 04:16:09;;;;;;;150.83;143.03;;;14.30;99.90;;;;;;5030732;28;20460;-62
2022/10/17 04:18:35;;;;;;;143.50;136.05;;;14.30;99.90;;;;;;5032129;28;20382;-62
2022/10/17 04:21:02;;;;;;;149.73;141.95;;;14.20;99.90;;;;;;5030604;28;20419;-62
2022/10/17 04:23:28;;;;;;;148.02;140.35;;;14.20;99.90;;;;;;5030276;28;20472;-62
2022/10/17 04:25:58;;;;;;;150.07;142.15;;;14.20;99.90;;;;;;5031049;28;20523;-62
2022/10/17 04:28:25;;;;;;;141.98;134.48;;;14.20;99.90;;;;;;5047995;28;20388;-62
2022/10/17 04:30:58;;;;;;;149.63;141.48;;;14.20;99.90;;;;;;5029564;28;20621;-62
2022/10/17 04:33:24;;;;;;;155.98;147.88;;;14.20;99.90;;;;;;5052301;28;20781;-63
2022/10/17 04:36:04;;;;;;;154.20;146.25;;;14.20;99.90;;;;;;5034218;28;20389;-63
2022/10/17 04:38:30;;;;;;;149.57;141.75;;;14.20;99.90;;;;;;5034775;28;20377;-62
2022/10/17 04:40:57;;;;;;;152.18;144.25;;;14.20;99.90;;;;;;5052431;28;20377;-62
2022/10/17 04:43:23;;;;;;;164.57;155.98;;;14.20;99.90;;;;;;5034537;28;20862;-62
2022/10/17 04:45:49;;;;;;;164.75;156.13;;;14.20;99.90;;;;;;5050652;28;20400;-62
2022/10/17 04:48:14;;;;;;;149.40;141.70;;;14.20;99.90;;;;;;5033052;28;20385;-62
2022/10/17 04:50:40;;;;;;;148.53;140.87;;;14.20;99.90;;;;;;5032582;28;20381;-62
2022/10/17 04:53:05;;;;;;;155.23;147.10;;;14.10;99.90;;;;;;5030855;28;20887;-62
2022/10/17 04:55:35;;;;;;;156.80;148.60;;;14.10;99.90;;;;;;5050775;28;20879;-62
2022/10/17 04:58:00;;;;;;;152.77;144.65;;;14.10;99.90;;;;;;5032655;28;20691;-62
2022/10/17 05:00:26;;;;;;;153.23;145.30;;;14.10;99.90;;;;;;5050262;28;20397;-62
2022/10/17 05:02:53;;;;;;;162.20;153.73;;;14.10;99.90;;;;;;5032908;28;20385;-62
2022/10/17 05:05:18;;;;;;;155.05;146.80;;;14.10;99.90;;;;;;5031865;28;20377;-61
2022/10/17 05:07:44;;;;;;;159.90;151.53;;;14.10;99.90;;;;;;5048307;28;20696;-62
2022/10/17 05:10:09;;;;;;;160.70;152.33;;;14.00;99.90;;;;;;5046799;28;20381;-62
2022/10/17 05:12:35;;;;;;;155.40;147.13;;;14.00;99.90;;;;;;5029200;28;20450;-62
2022/10/17 05:15:00;;;;;;;155.03;146.57;;;14.00;99.90;;;;;;5029097;28;20421;-62
2022/10/17 05:17:26;;;;;;;154.33;146.07;;;13.90;99.90;;;;;;5028923;28;20763;-62
2022/10/17 05:19:51;;;;;;;165.87;157.03;;;13.90;99.90;;;;;;5029046;28;20560;-62
2022/10/17 05:22:17;;;;;;;162.73;154.13;;;13.90;99.90;;;;;;5028241;28;20381;-62
2022/10/17 05:24:42;;;;;;;165.20;156.35;;;13.90;99.90;;;;;;5029824;28;20468;-62
2022/10/17 05:27:08;;;;;;;164.50;155.73;;;13.90;99.90;;;;;;5031008;28;20716;-62
2022/10/17 05:29:34;;;;;;;167.30;158.50;;;13.90;99.90;;;;;;5030474;28;20789;-61
2022/10/17 05:31:59;;;;;;;171.05;162.13;;;13.90;99.90;;;;;;5030220;28;20785;-62
2022/10/17 05:34:25;;;;;;;173.97;164.80;;;13.80;99.90;;;;;;5028786;28;20502;-62
2022/10/17 05:36:50;;;;;;;163.40;154.80;;;13.90;99.90;;;;;;5030861;28;20407;-62
2022/10/17 05:39:18;;;;;;;169.77;160.60;;;13.80;99.90;;;;;;5029469;28;20900;-60
2022/10/17 05:41:45;;;;;;;172.30;163.30;;;13.80;99.90;;;;;;5029228;28;20670;-61
2022/10/17 05:44:11;;;;;;;172.50;163.32;;;13.80;99.90;;;;;;5029272;28;20482;-62
2022/10/17 05:46:36;;;;;;;170.25;161.20;;;13.80;99.90;;;;;;5029937;28;20474;-62
2022/10/17 05:49:02;;;;;;;163.60;154.98;;;13.80;99.90;;;;;;5027528;28;20381;-62
2022/10/17 05:51:27;;;;;;;167.60;158.57;;;13.80;99.90;;;;;;5027873;28;20963;-62
2022/10/17 05:53:53;;;;;;;170.57;161.50;;;13.80;99.90;;;;;;5027246;28;20915;-62
2022/10/17 05:56:19;;;;;;;166.05;157.32;;;13.70;99.90;;;;;;5025777;28;20403;-63
2022/10/17 05:58:46;;;;;;;169.18;160.30;;;13.70;99.90;;;;;;5026021;28;20611;-62
2022/10/17 06:01:12;;;;;;;177.40;167.90;;;13.70;99.90;;;;;;5025349;28;20395;-62
2022/10/17 06:03:37;;;;;;;171.50;162.48;;;13.70;99.90;;;;;;5025193;28;20383;-61
2022/10/17 06:06:09;;;;;;;177.90;168.40;;;13.70;99.90;;;;;;5020941;28;20690;-62
2022/10/17 06:08:34;;;;;;;171.80;162.73;;;13.70;99.90;;;;;;5020421;28;20391;-62
2022/10/17 06:11:00;;;;;;;172.98;163.85;;;13.80;99.90;;;;;;5017920;28;20793;-64
2022/10/17 06:13:26;;;;;;;180.10;170.57;;;13.80;99.90;;;;;;5016949;28;20694;-62
2022/10/17 06:15:51;;;;;;;173.50;164.38;;;13.80;99.90;;;;;;5017005;28;20410;-62
2022/10/17 06:18:17;;;;;;;172.50;163.20;;;13.80;99.90;;;;;;5017173;28;20391;-62
2022/10/17 06:20:42;;;;;;;181.33;171.93;;;13.90;99.90;;;;;;5016851;28;20658;-62
2022/10/17 06:23:08;;;;;;;174.30;165.03;;;13.90;99.90;;;;;;5015714;28;20390;-62
2022/10/17 06:25:33;;;;;;;172.52;163.23;;;13.90;99.90;;;;;;5016561;28;20379;-61
2022/10/17 06:27:59;;;;;;;169.10;160.20;;;13.90;99.90;;;;;;5014194;28;20422;-62
2022/10/17 06:30:24;;;;;;;173.73;164.55;;;13.90;99.90;;;;;;5014936;28;20700;-62
2022/10/17 06:32:51;;;;;;;176.43;167.15;;;13.80;99.90;;;;;;5016560;28;20437;-63
2022/10/17 06:35:17;;;;;;;170.50;161.38;;;13.80;99.90;;;;;;5022025;28;20381;-62
2022/10/17 06:37:42;;;;;;;179.05;169.50;;;13.80;99.90;;;;;;5042106;28;20417;-62
2022/10/17 06:40:10;;;;;;;186.07;176.18;;;13.90;99.90;;;;;;5020858;28;20472;-59
2022/10/17 06:42:37;;;;;;;177.73;168.25;;;13.90;99.90;;;;;;5019931;28;20424;-62
2022/10/17 06:45:03;;;;;;;185.17;175.13;;;13.90;99.90;;;;;;5035083;28;20466;-62
2022/10/17 06:47:29;;;;;;;179.70;170.02;;;13.90;99.90;;;;;;5015430;28;21164;-62
2022/10/17 06:49:54;;;;;;;195.03;184.63;;;14.00;99.90;;;;;;5013889;28;20377;-62
2022/10/17 06:52:20;;;;;;;189.63;179.47;;;14.00;99.90;;;;;;5029603;28;21034;-62
2022/10/17 06:54:45;;;;;;;184.32;174.52;;;14.00;99.90;;;;;;5011154;28;20815;-62
2022/10/17 06:57:11;;;;;;;195.50;185.03;;;14.00;99.90;;;;;;5029658;28;20474;-62
2022/10/17 06:59:36;;;;;;;190.70;180.30;;;14.00;99.90;;;;;;5011968;28;20401;-62
2022/10/17 07:02:02;;;;;;;206.50;195.23;;;14.00;99.90;;;;;;5014818;28;20464;-62
2022/10/17 07:04:28;;;;;;;214.20;202.40;;;14.00;99.90;;;;;;5018365;28;20455;-64
2022/10/17 07:06:53;;;;;;;209.23;197.53;;;14.00;99.90;;;;;;5018240;28;20718;-62
2022/10/17 07:09:19;;;;;;;209.23;197.73;;;14.00;99.90;;;;;;5017058;28;20404;-62
2022/10/17 07:11:45;;;;;;;214.82;202.68;;;14.10;99.90;;;;;;5020723;28;20405;-62
2022/10/17 07:14:11;;;;;;;214.77;202.82;;;14.10;99.90;;;;;;5035195;28;20633;-61
2022/10/17 07:16:36;;;;;;;204.23;193.03;;;14.10;99.90;;;;;;5015951;28;20421;-61
2022/10/17 07:19:02;;;;;;;209.35;197.95;;;14.20;99.90;;;;;;5018532;28;20393;-61
2022/10/17 07:21:28;;;;;;;202.75;191.50;;;14.30;99.90;;;;;;5019354;28;20738;-59
2022/10/17 07:23:54;;;;;;;210.73;199.02;;;14.30;99.90;;;;;;5018576;28;20386;-61
2022/10/17 07:26:19;;;;;;;206.68;195.30;;;14.30;99.90;;;;;;5036024;28;20797;-61
2022/10/17 07:28:46;;;;;;;202.97;191.90;;;14.40;99.90;;;;;;5020190;28;20805;-61
2022/10/17 07:31:15;;;;;;;205.60;194.43;;;14.40;99.90;;;;;;5041854;28;20413;-62
2022/10/17 07:33:42;;;;;;;193.93;183.30;;;14.50;99.90;;;;;;5026902;28;20443;-61
2022/10/17 07:36:08;;;;;;;184.90;174.50;;;14.50;99.90;;;;;;5026003;28;20437;-62
2022/10/17 07:38:35;;;;;;;203.82;192.63;;;14.50;99.90;;;;;;5023839;28;21066;-62
2022/10/17 07:41:03;;;;;;;200.13;189.00;;;14.60;99.90;;;;;;5023693;28;20878;-61
2022/10/17 07:43:29;;;;;;;191.63;181.00;;;14.60;99.90;;;;;;5023052;28;20377;-63
2022/10/17 07:45:55;;;;;;;190.82;180.52;;;14.70;99.90;;;;;;5039313;28;20504;-62
2022/10/17 07:48:22;;;;;;;222.77;210.60;;;14.70;99.90;;;;;;5038514;28;20484;-61
2022/10/17 07:50:49;;;;;;;205.15;193.85;;;14.70;99.90;;;;;;5024006;28;20417;-61
2022/10/17 07:53:15;;;;;;;198.32;187.35;;;14.70;99.90;;;;;;5025772;28;20381;-61
2022/10/17 07:55:45;;;;;;;182.23;172.25;;;14.80;99.90;;;;;;5027633;28;20382;-61
2022/10/17 07:58:12;;;;;;;186.23;175.65;;;14.80;99.90;;;;;;5028450;28;20392;-61
2022/10/17 08:00:38;;;;;;;177.90;167.82;;;14.80;99.90;;;;;;5028596;28;20836;-61
2022/10/17 08:03:04;;;;;;;177.73;167.55;;;14.80;99.90;;;;;;5025575;28;20393;-61
2022/10/17 08:05:31;;;;;;;165.68;156.63;;;14.90;99.90;;;;;;5023376;28;20386;-61
2022/10/17 08:07:57;;;;;;;174.30;164.77;;;15.00;99.90;;;;;;5040537;28;20373;-62
2022/10/17 08:10:29;;;;;;;171.82;162.52;;;15.10;99.90;;;;;;5043497;28;20382;-63
2022/10/17 08:12:56;;;;;;;177.05;167.40;;;15.20;99.90;;;;;;5027944;28;20381;-61
2022/10/17 08:15:22;;;;;;;188.35;178.23;;;15.30;99.90;;;;;;5044579;28;20429;-61
2022/10/17 08:17:48;;;;;;;190.75;180.65;;;15.40;99.90;;;;;;5022897;28;20866;-61
2022/10/17 08:20:14;;;;;;;188.65;178.55;;;15.40;99.90;;;;;;5024676;28;20382;-61
2022/10/17 08:22:40;;;;;;;189.13;179.25;;;15.50;99.90;;;;;;5041854;28;20420;-60
2022/10/17 08:25:06;;;;;;;202.00;191.55;;;15.50;99.90;;;;;;5044873;28;20384;-61
2022/10/17 08:27:33;;;;;;;191.63;181.55;;;15.60;99.90;;;;;;5025431;28;20412;-61
2022/10/17 08:29:59;;;;;;;189.57;179.57;;;15.60;99.90;;;;;;5043364;28;20436;-61
2022/10/17 08:32:27;;;;;;;195.00;184.80;;;15.60;99.90;;;;;;5026810;28;20410;-62
2022/10/17 08:34:54;;;;;;;196.40;186.07;;;15.60;99.90;;;;;;5046193;28;20488;-63
2022/10/17 08:37:20;;;;;;;209.07;198.10;;;15.60;99.90;;;;;;5028039;28;20458;-62
2022/10/17 08:39:47;;;;;;;191.77;181.47;;;15.70;99.90;;;;;;5028033;28;20380;-62
2022/10/17 08:42:50;;;;;;;198.02;187.45;;;15.70;99.90;;;;;;5028577;28;20378;-62
2022/10/17 08:45:47;;;;;;;214.70;203.27;;;15.70;99.90;;;;;;5045864;28;20661;-57
2022/10/17 08:48:16;;;;;;;221.48;209.57;;;15.80;99.90;;;;;;5028527;28;20756;-57
2022/10/17 08:50:59;;;;;;;205.77;194.85;;;15.80;99.90;;;;;;5025021;28;20476;-54
2022/10/17 08:53:39;;;;;;;210.75;199.48;;;15.90;99.90;;;;;;5025881;28;20407;-62
2022/10/17 08:56:16;;;;;;;209.27;198.25;;;16.00;99.90;;;;;;5024195;28;20808;-62
2022/10/17 08:58:45;;;;;;;208.15;197.35;;;15.90;99.90;;;;;;5023850;28;20385;-61
2022/10/17 09:01:13;;;;;;;218.98;207.60;;;16.00;99.90;;;;;;5043843;28;20401;-62
2022/10/17 09:04:00;;;;;;;213.32;202.18;;;16.10;99.90;;;;;;5026591;28;20397;-61
2022/10/17 09:06:30;;;;;;;224.85;213.00;;;16.10;99.90;;;;;;5028250;28;20385;-62
2022/10/17 09:09:10;;;;;;;232.43;220.13;;;16.30;99.90;;;;;;5030009;28;20382;-62
2022/10/17 09:11:54;;;;;;;225.70;214.05;;;16.20;99.90;;;;;;5028738;28;20385;-61
2022/10/17 09:14:32;;;;;;;238.30;226.05;;;16.30;99.90;;;;;;5028905;28;20737;-62
2022/10/17 09:17:06;;;;;;;253.68;240.80;;;16.50;99.90;;;;;;5030167;28;20502;-60
2022/10/17 09:19:39;;;;;;;240.75;228.25;;;16.60;99.90;;;;;;5049523;28;20369;-61
2022/10/17 09:22:18;;;;;;;238.98;226.73;;;16.70;99.90;;;;;;5030570;28;20389;-62
2022/10/17 09:24:54;;;;;;;251.07;237.70;;;16.80;99.90;;;;;;5029994;28;20378;-63
2022/10/17 09:27:43;;;;;;;245.70;233.20;;;16.90;99.90;;;;;;5045600;28;20809;-62
2022/10/17 09:30:31;;;;;;;238.60;226.18;;;17.00;99.90;;;;;;5026359;28;20401;-62
2022/10/17 09:32:57;;;;;;;252.60;239.68;;;17.00;99.90;;;;;;5025409;28;20378;-62
2022/10/17 09:35:24;;;;;;;256.55;243.63;;;17.00;99.90;;;;;;5044956;28;20415;-62
2022/10/17 09:37:50;;;;;;;259.47;246.37;;;17.10;99.90;;;;;;5028544;28;20405;-61
2022/10/17 09:40:25;;;;;;;261.63;248.15;;;17.10;99.90;;;;;;5044885;28;20918;-62
2022/10/17 09:42:52;;;;;;;268.27;254.63;;;17.20;99.90;;;;;;5046250;28;20374;-62
2022/10/17 09:45:24;;;;;;;270.25;256.30;;;17.30;99.90;;;;;;5028687;28;20408;-62
2022/10/17 09:48:10;;;;;;;264.10;250.75;;;17.30;99.90;;;;;;5046193;28;20390;-61
2022/10/17 09:50:36;;;;;;;273.47;259.43;;;17.40;99.90;;;;;;5028178;28;20480;-61
2022/10/17 09:53:22;;;;;;;263.83;250.40;;;17.40;99.90;;;;;;5028521;28;21034;-62
2022/10/17 09:55:54;;;;;;;262.05;248.65;;;17.50;99.90;;;;;;5029598;28;20392;-62
2022/10/17 09:58:19;;;;;;;271.70;257.67;;;17.60;99.90;;;;;;5047742;28;20432;-62
2022/10/17 10:00:47;;;;;;;268.07;254.03;;;17.60;99.90;;;;;;5028257;28;20841;-62
2022/10/17 10:03:25;;;;;;;280.08;265.65;;;17.70;99.90;;;;;;5029925;28;20446;-62
2022/10/17 10:06:20;;;;;;;277.00;262.67;;;17.80;99.90;;;;;;5044506;28;20785;-62
2022/10/17 10:08:58;;;;;;;277.37;263.17;;;17.80;99.90;;;;;;5025230;28;20400;-62
2022/10/17 10:11:52;;;;;;;277.53;263.23;;;17.90;99.90;;;;;;5046441;28;20508;-62
2022/10/17 10:14:36;;;;;;;281.10;266.67;;;18.00;99.90;;;;;;5045882;28;20378;-61
2022/10/17 10:17:05;;;;;;;283.00;268.25;;;18.00;99.90;;;;;;5028504;28;20693;-62
2022/10/17 10:19:36;;;;;;;283.50;268.65;;;18.10;99.90;;;;;;5044858;28;20409;-62
2022/10/17 10:22:05;;;;;;;284.75;269.65;;;18.20;99.90;;;;;;5026136;28;20388;-62
2022/10/17 10:24:32;;;;;;;282.17;267.52;;;18.20;99.90;;;;;;5027225;28;20451;-62
2022/10/17 10:27:00;;;;;;;277.70;263.38;;;18.30;99.90;;;;;;5026045;28;20385;-61
2022/10/17 10:29:31;;;;;;;281.83;267.42;;;18.30;99.90;;;;;;5027693;28;20382;-62
2022/10/17 10:32:19;;;;;;;287.50;272.77;;;18.40;99.90;;;;;;5029888;28;20377;-62
2022/10/17 10:35:15;;;;;;;284.67;269.77;;;18.50;99.90;;;;;;5027033;28;20448;-62
2022/10/17 10:37:58;;;;;;;280.25;265.85;;;18.60;99.90;;;;;;5025962;28;20412;-62
2022/10/17 10:40:29;;;;;;;287.38;272.33;;;18.70;99.90;;;;;;5025120;28;20389;-63
2022/10/17 10:42:58;;;;;;;285.27;270.48;;;18.80;99.90;;;;;;5044622;28;20412;-62
2022/10/17 10:49:29;;;;;;;286.55;271.67;;;18.90;99.90;;;;;;5042159;28;20361;-67
2022/10/17 10:55:54;;;;;;;273.20;259.13;;;18.90;99.90;;;;;;5048500;28;20407;-62
2022/10/17 10:58:36;;;;;;;278.33;264.07;;;18.80;99.90;;;;;;5020525;28;20454;-62
2022/10/17 11:01:10;;;;;;;276.58;262.20;;;18.80;99.90;;;;;;5022533;28;20397;-63
2022/10/17 11:03:46;;;;;;;285.30;270.48;;;18.80;99.90;;;;;;5039955;28;20385;-63
2022/10/17 11:06:26;;;;;;;287.20;272.17;;;18.80;99.90;;;;;;5020829;28;20890;-62
2022/10/17 11:09:11;;;;;;;286.67;271.55;;;18.80;99.90;;;;;;5035378;28;20389;-62
2022/10/17 11:11:46;;;;;;;285.25;270.05;;;18.80;99.90;;;;;;5019832;28;20365;-62
2022/10/17 11:14:33;;;;;;;287.17;272.17;;;18.80;99.90;;;;;;5020290;28;20378;-62
2022/10/17 11:17:06;;;;;;;292.73;277.65;;;18.80;99.90;;;;;;5035070;28;20420;-63
2022/10/17 11:19:50;;;;;;;283.27;268.67;;;18.80;99.90;;;;;;5029528;28;20555;-63
2022/10/17 11:22:26;;;;;;;287.05;271.98;;;18.90;99.90;;;;;;5003754;28;20381;-63
2022/10/17 11:25:15;;;;;;;289.50;274.25;;;18.90;99.90;;;;;;5005434;28;20811;-63
2022/10/17 11:27:41;;;;;;;285.83;270.55;;;19.00;99.90;;;;;;5023450;28;20606;-63
2022/10/17 11:30:12;;;;;;;277.52;263.10;;;19.10;99.90;;;;;;5008005;28;20406;-63
2022/10/17 11:32:58;;;;;;;289.52;273.98;;;19.20;99.90;;;;;;5011487;28;20748;-63
2022/10/17 11:35:29;;;;;;;281.02;266.48;;;19.30;99.90;;;;;;4991823;28;20674;-62
2022/10/17 11:38:20;;;;;;;275.93;261.40;;;19.30;99.90;;;;;;4989251;28;20405;-62
2022/10/17 11:40:49;;;;;;;273.27;258.40;;;19.40;99.90;;;;;;4993129;28;20487;-63
2022/10/17 11:43:35;;;;;;;278.98;264.48;;;19.40;99.90;;;;;;4990048;28;20393;-62
2022/10/17 11:46:10;;;;;;;276.45;261.77;;;19.40;99.90;;;;;;4988783;28;20935;-62
2022/10/17 11:48:44;;;;;;;271.05;256.80;;;19.40;99.90;;;;;;4987186;28;20403;-62
2022/10/17 11:51:12;;;;;;;289.87;274.57;;;19.50;99.90;;;;;;4986843;28;20388;-62
2022/10/17 11:53:56;;;;;;;288.08;273.02;;;19.50;99.90;;;;;;4990406;28;20396;-62
2022/10/17 11:56:38;;;;;;;277.75;263.15;;;19.60;99.90;;;;;;4989472;28;20648;-62
2022/10/17 11:59:52;;;;;;;275.98;261.67;;;19.60;99.90;;;;;;4992659;28;20392;-62
2022/10/17 12:02:32;;;;;;;294.75;279.38;;;19.60;99.90;;;;;;4973499;28;20393;-62
2022/10/17 12:05:12;;;;;;;300.55;284.80;;;19.60;99.90;;;;;;4988461;28;20655;-62
2022/10/17 12:08:04;;;;;;;289.03;273.80;;;19.50;99.90;;;;;;4986672;28;21034;-62
2022/10/17 12:10:52;;;;;;;299.10;283.60;;;19.50;99.90;;;;;;4989203;28;20525;-61
2022/10/17 12:13:27;;;;;;;293.92;278.23;;;19.40;99.90;;;;;;4991547;28;20620;-60
2022/10/17 12:15:58;;;;;;;313.85;297.50;;;19.30;99.90;;;;;;4989288;28;20594;-62
2022/10/17 12:18:26;;;;;;;298.27;282.42;;;19.30;99.90;;;;;;4991216;28;20821;-62
2022/10/17 12:20:56;;;;;;;307.13;290.90;;;19.20;99.90;;;;;;4988789;28;20688;-62
2022/10/17 12:23:31;;;;;;;312.87;296.20;;;19.10;99.90;;;;;;4989622;28;20396;-62
2022/10/17 12:26:00;;;;;;;297.07;281.27;;;19.00;99.90;;;;;;4994907;28;20480;-62
2022/10/17 12:28:25;;;;;;;292.50;277.13;;;19.00;99.90;;;;;;4992209;28;20389;-63
2022/10/17 12:31:17;;;;;;;291.90;276.40;;;19.00;99.90;;;;;;4993924;28;20521;-61
2022/10/17 12:34:01;;;;;;;284.50;269.48;;;18.90;99.90;;;;;;4997376;28;20415;-62
2022/10/17 12:36:29;;;;;;;268.50;254.48;;;18.90;99.90;;;;;;5008224;28;20751;-62